Time;durP1;ratioP1;P1;durP2;ratioP2;P2;SDS_P1;SDS_P2;PMS_P1;PMS_P2;Temp;Humidity;BMP_temperature;BMP_pressure;BME280_temperature;BME280_humidity;BME280_pressure;Samples;Min_cycle;Max_cycle;Signal;HPM_P1;HPM_P2
2023/09/24 00:02:14;;;;;;;;;;;12.50;99.90;;;;;;8407276;28;20034;-71
2023/09/24 00:06:16;;;;;;;;;;;12.40;99.90;;;;;;8404405;28;19925;-71
2023/09/24 00:20:39;;;;;;;;;;;12.30;99.90;;;;;;8386613;28;19932;-71
2023/09/24 00:24:40;;;;;;;;;;;12.30;99.90;;;;;;8390837;28;19970;-71
2023/09/24 00:28:42;;;;;;;;;;;12.30;99.90;;;;;;8394740;28;20559;-71
2023/09/24 00:32:44;;;;;;;;;;;12.30;99.90;;;;;;8395862;28;19981;-71
2023/09/24 00:46:52;;;;;;;;;;;12.20;99.90;;;;;;8401705;28;20280;-71
2023/09/24 00:50:57;;;;;;;;;;;12.20;99.90;;;;;;8403299;28;19955;-70
2023/09/24 00:54:59;;;;;;;;;;;12.20;99.90;;;;;;8400418;28;19928;-71
2023/09/24 00:59:01;;;;;;;;;;;12.20;99.90;;;;;;8399361;28;20015;-71
2023/09/24 01:03:04;;;;;;;;;;;12.10;99.90;;;;;;8392395;28;19932;-71
2023/09/24 01:07:06;;;;;;;;;;;12.10;99.90;;;;;;8380324;28;20018;-71
2023/09/24 01:11:08;;;;;;;;;;;12.10;99.90;;;;;;8391941;28;19946;-71
2023/09/24 01:15:14;;;;;;;;;;;12.10;99.90;;;;;;8399731;28;19931;-71
2023/09/24 01:19:16;;;;;;;;;;;12.10;99.90;;;;;;8402709;28;19924;-71
2023/09/24 01:23:18;;;;;;;;;;;12.10;99.90;;;;;;8385125;28;19962;-71
2023/09/24 01:27:21;;;;;;;;;;;12.00;99.90;;;;;;8412269;28;20438;-71
2023/09/24 01:31:26;;;;;;;;;;;12.00;99.90;;;;;;8415782;28;19928;-71
2023/09/24 01:35:28;;;;;;;;;;;12.10;99.90;;;;;;8381989;28;19933;-71
2023/09/24 01:39:32;;;;;;;;;;;12.10;99.90;;;;;;8372298;28;19986;-71
2023/09/24 01:43:34;;;;;;;;;;;12.00;99.90;;;;;;8385153;28;19932;-71
2023/09/24 01:47:37;;;;;;;;;;;12.00;99.90;;;;;;8387783;28;19932;-71
2023/09/24 01:51:39;;;;;;;;;;;12.00;99.90;;;;;;8406880;28;19968;-71
2023/09/24 01:55:40;;;;;;;;;;;12.00;99.90;;;;;;8398457;28;19931;-71
2023/09/24 01:59:44;;;;;;;;;;;11.90;99.90;;;;;;8406922;28;19938;-71
2023/09/24 02:03:46;;;;;;;;;;;11.90;99.90;;;;;;8405309;28;19924;-71
2023/09/24 02:07:49;;;;;;;;;;;11.90;99.90;;;;;;8401659;28;19925;-71
2023/09/24 02:11:53;;;;;;;;;;;11.80;99.90;;;;;;8400254;28;20005;-71
2023/09/24 02:15:56;;;;;;;;;;;11.70;99.90;;;;;;8403326;28;19930;-71
2023/09/24 02:19:58;;;;;;;;;;;11.70;99.90;;;;;;8399154;28;19932;-71
2023/09/24 02:24:00;;;;;;;;;;;11.70;99.90;;;;;;8399776;28;19929;-71
2023/09/24 02:28:02;;;;;;;;;;;11.70;99.90;;;;;;8397619;28;19990;-71
2023/09/24 02:32:04;;;;;;;;;;;11.60;99.90;;;;;;8402232;28;19924;-71
2023/09/24 02:36:09;;;;;;;;;;;11.60;99.90;;;;;;8400365;28;19956;-70
2023/09/24 02:40:19;;;;;;;;;;;11.60;99.90;;;;;;8403961;28;20468;-71
2023/09/24 02:44:22;;;;;;;;;;;11.50;99.90;;;;;;8371544;28;20477;-71
2023/09/24 02:48:24;;;;;;;;;;;11.50;99.90;;;;;;8389350;28;19930;-71
2023/09/24 02:52:25;;;;;;;;;;;11.50;99.90;;;;;;8409178;28;20005;-71
2023/09/24 02:56:28;;;;;;;;;;;11.50;99.90;;;;;;8406723;28;19937;-71
2023/09/24 03:00:35;;;;;;;;;;;11.50;99.90;;;;;;8406848;28;20441;-71
2023/09/24 03:04:36;;;;;;;;;;;11.40;99.90;;;;;;8406249;28;19924;-70
2023/09/24 03:08:38;;;;;;;;;;;11.40;99.90;;;;;;8407669;28;19932;-71
2023/09/24 03:12:40;;;;;;;;;;;11.40;99.90;;;;;;8397040;28;20042;-71
2023/09/24 03:16:42;;;;;;;;;;;11.40;99.90;;;;;;8407263;28;19939;-71
2023/09/24 03:20:44;;;;;;;;;;;11.40;99.90;;;;;;8411111;28;19928;-71
2023/09/24 03:34:53;;;;;;;;;;;11.30;99.90;;;;;;8408934;28;20393;-71
2023/09/24 03:38:55;;;;;;;;;;;11.30;99.90;;;;;;8402225;28;19924;-71
2023/09/24 03:42:57;;;;;;;;;;;11.30;99.90;;;;;;8402657;28;19924;-71
2023/09/24 03:46:59;;;;;;;;;;;11.20;99.90;;;;;;8385068;28;20095;-71
2023/09/24 03:51:00;;;;;;;;;;;11.10;99.90;;;;;;8392414;28;19928;-71
2023/09/24 03:55:02;;;;;;;;;;;11.10;99.90;;;;;;8413034;28;19924;-71
2023/09/24 03:59:04;;;;;;;;;;;11.00;99.90;;;;;;8401190;28;20437;-71
2023/09/24 04:03:07;;;;;;;;;;;11.00;99.90;;;;;;8403583;28;20276;-71
2023/09/24 04:07:09;;;;;;;;;;;11.00;99.90;;;;;;8412685;28;19938;-71
2023/09/24 04:11:15;;;;;;;;;;;11.00;99.90;;;;;;8405715;28;19925;-71
2023/09/24 04:15:19;;;;;;;;;;;11.00;99.90;;;;;;8402935;28;19979;-71
2023/09/24 04:19:21;;;;;;;;;;;11.00;99.90;;;;;;8408990;28;20053;-71
2023/09/24 04:23:24;;;;;;;;;;;11.00;99.90;;;;;;8399635;28;20411;-71
2023/09/24 04:27:26;;;;;;;;;;;10.90;99.90;;;;;;8399204;28;20346;-71
2023/09/24 04:31:28;;;;;;;;;;;10.90;99.90;;;;;;8375463;28;19932;-71
2023/09/24 04:35:29;;;;;;;;;;;10.90;99.90;;;;;;8381404;28;19939;-71
2023/09/24 04:39:31;;;;;;;;;;;10.80;99.90;;;;;;8395662;28;19978;-71
2023/09/24 04:43:35;;;;;;;;;;;10.80;99.90;;;;;;8409738;28;20375;-71
2023/09/24 04:47:37;;;;;;;;;;;10.70;99.90;;;;;;8394882;28;19925;-71
2023/09/24 04:51:39;;;;;;;;;;;10.70;99.90;;;;;;8418223;28;19928;-71
2023/09/24 04:55:41;;;;;;;;;;;10.70;99.90;;;;;;8419020;28;20359;-70
2023/09/24 04:59:42;;;;;;;;;;;10.60;99.90;;;;;;8399245;28;22191;-70
2023/09/24 05:03:44;;;;;;;;;;;10.60;99.90;;;;;;8408588;28;20418;-71
2023/09/24 05:07:47;;;;;;;;;;;10.60;99.90;;;;;;8410963;28;19928;-71
2023/09/24 05:11:48;;;;;;;;;;;10.60;99.90;;;;;;8407760;28;19935;-70
2023/09/24 05:15:53;;;;;;;;;;;10.60;99.90;;;;;;8415760;28;19931;-70
2023/09/24 05:19:55;;;;;;;;;;;10.50;99.90;;;;;;8416680;28;20612;-71
2023/09/24 05:23:57;;;;;;;;;;;10.50;99.90;;;;;;8419201;28;19924;-71
2023/09/24 05:27:59;;;;;;;;;;;10.50;99.90;;;;;;8396545;28;20287;-71
2023/09/24 05:32:02;;;;;;;;;;;10.50;99.90;;;;;;8397219;28;19935;-71
2023/09/24 05:51:14;;;;;;;;;;;10.50;99.90;;;;;;8420971;28;19919;-70
2023/09/24 05:55:16;;;;;;;;;;;10.50;99.90;;;;;;8399258;28;19931;-71
2023/09/24 06:19:44;;;;;;;;;;;10.90;99.90;;;;;;8400567;28;19979;-71
2023/09/24 06:28:55;;;;;;;;;;;11.10;99.90;;;;;;8384524;28;20339;-71
2023/09/24 06:43:18;;;;;;;;;;;11.40;99.90;;;;;;8388685;28;20400;-70
2023/09/24 06:47:20;;;;;;;;;;;11.50;99.90;;;;;;8384145;28;19931;-71
2023/09/24 06:51:21;;;;;;;;;;;11.50;99.90;;;;;;8385696;28;19981;-71
2023/09/24 06:55:23;;;;;;;;;;;11.50;99.90;;;;;;8384991;28;20375;-71
2023/09/24 06:59:25;;;;;;;;;;;11.50;99.90;;;;;;8389068;28;19936;-70
2023/09/24 07:03:28;;;;;;;;;;;11.60;99.90;;;;;;8387169;28;19970;-70
2023/09/24 07:07:30;;;;;;;;;;;11.60;99.90;;;;;;8374804;28;20624;-71
2023/09/24 07:11:34;;;;;;;;;;;11.70;99.90;;;;;;8380068;28;19935;-71
2023/09/24 07:15:35;;;;;;;;;;;11.70;99.90;;;;;;8389859;28;19924;-71
2023/09/24 07:19:37;;;;;;;;;;;11.80;99.90;;;;;;8385256;28;20281;-70
2023/09/24 07:23:39;;;;;;;;;;;11.90;99.90;;;;;;8381898;28;20256;-70
2023/09/24 07:27:41;;;;;;;;;;;12.00;99.90;;;;;;8385421;28;19990;-71
2023/09/24 07:31:43;;;;;;;;;;;12.10;99.90;;;;;;8382649;28;19925;-71
2023/09/24 07:35:45;;;;;;;;;;;12.20;99.90;;;;;;8387870;28;19931;-71
2023/09/24 07:39:49;;;;;;;;;;;12.20;99.90;;;;;;8393027;28;19933;-71
2023/09/24 07:43:51;;;;;;;;;;;12.30;99.90;;;;;;8394018;28;19935;-70
2023/09/24 07:47:52;;;;;;;;;;;12.40;99.90;;;;;;8387098;28;19924;-70
2023/09/24 07:51:54;;;;;;;;;;;12.50;99.90;;;;;;8382819;28;19931;-70
2023/09/24 07:55:56;;;;;;;;;;;12.60;99.90;;;;;;8388284;28;19924;-70
2023/09/24 07:59:58;;;;;;;;;;;12.70;99.90;;;;;;8386172;28;20239;-70
2023/09/24 08:03:59;;;;;;;;;;;12.80;99.90;;;;;;8388430;28;19932;-69
2023/09/24 08:08:01;;;;;;;;;;;12.90;99.90;;;;;;8392799;28;19924;-70
2023/09/24 08:12:03;;;;;;;;;;;13.00;99.90;;;;;;8391227;28;20387;-70
2023/09/24 08:16:05;;;;;;;;;;;13.20;99.90;;;;;;8386975;28;20208;-70
2023/09/24 08:20:07;;;;;;;;;;;13.30;99.90;;;;;;8392993;28;19935;-70
2023/09/24 08:24:08;;;;;;;;;;;13.50;99.90;;;;;;8425157;28;19970;-70
2023/09/24 08:28:11;;;;;;;;;;;13.60;99.90;;;;;;8396674;28;20385;-70
2023/09/24 08:32:12;;;;;;;;;;;13.70;99.90;;;;;;8414558;28;19928;-69
2023/09/24 08:36:15;;;;;;;;;;;13.80;99.90;;;;;;8415238;28;19924;-70
2023/09/24 08:40:17;;;;;;;;;;;13.90;99.90;;;;;;8399392;28;19939;-71
2023/09/24 08:44:23;;;;;;;;;;;14.10;99.90;;;;;;8420531;28;19925;-70
2023/09/24 08:48:27;;;;;;;;;;;14.20;99.90;;;;;;8403509;28;19924;-70
2023/09/24 08:52:31;;;;;;;;;;;14.30;99.90;;;;;;8424495;28;19924;-70
2023/09/24 09:01:31;;;;;;;;;;;14.60;99.90;;;;;;8408819;28;19924;-71
2023/09/24 09:05:36;;;;;;;;;;;14.70;99.90;;;;;;8408824;28;20433;-70
2023/09/24 09:09:38;;;;;;;;;;;14.90;99.90;;;;;;8422783;28;20013;-70
2023/09/24 09:13:42;;;;;;;;;;;15.00;99.90;;;;;;8397723;28;20322;-70
2023/09/24 09:17:44;;;;;;;;;;;15.10;99.90;;;;;;8416578;28;19924;-69
2023/09/24 09:21:45;;;;;;;;;;;15.20;99.90;;;;;;8399288;28;20057;-70
2023/09/24 09:25:53;;;;;;;;;;;15.30;99.90;;;;;;8408811;28;19931;-69
2023/09/24 09:30:08;;;;;;;;;;;15.40;99.90;;;;;;8402810;28;19928;-70
2023/09/24 09:34:10;;;;;;;;;;;15.40;99.90;;;;;;8423759;28;19925;-70
2023/09/24 09:38:12;;;;;;;;;;;15.50;99.90;;;;;;8421196;28;19924;-70
2023/09/24 09:42:18;;;;;;;;;;;15.70;99.90;;;;;;8415425;28;19979;-70
2023/09/24 09:46:21;;;;;;;;;;;15.80;99.90;;;;;;8396884;28;19935;-70
2023/09/24 09:50:24;;;;;;;;;;;15.90;99.90;;;;;;8395212;28;19935;-70
2023/09/24 09:54:31;;;;;;;;;;;16.10;99.90;;;;;;8419228;28;19928;-70
2023/09/24 09:58:34;;;;;;;;;;;16.10;99.90;;;;;;8419950;28;19970;-69
2023/09/24 10:02:36;;;;;;;;;;;16.20;99.90;;;;;;8421997;28;19970;-69
2023/09/24 10:06:38;;;;;;;;;;;16.20;99.90;;;;;;8406960;28;19932;-69
2023/09/24 10:10:42;;;;;;;;;;;16.30;99.90;;;;;;8387971;28;19925;-70
2023/09/24 10:14:45;;;;;;;;;;;16.40;99.90;;;;;;8422164;28;20224;-69
2023/09/24 10:19:13;;;;;;;;;;;16.60;99.90;;;;;;8424488;28;20006;-69
2023/09/24 10:23:30;;;;;;;;;;;16.70;99.90;;;;;;8410425;28;19925;-70
2023/09/24 10:27:32;;;;;;;;;;;16.80;99.90;;;;;;8395085;28;19973;-69
2023/09/24 10:31:34;;;;;;;;;;;16.90;99.90;;;;;;8411286;28;19932;-70
2023/09/24 10:35:36;;;;;;;;;;;17.10;99.90;;;;;;8418797;28;19969;-70
2023/09/24 10:40:04;;;;;;;;;;;17.10;99.90;;;;;;8416840;28;19956;-70
2023/09/24 10:44:25;;;;;;;;;;;17.30;99.90;;;;;;8408879;28;19977;-70
2023/09/24 10:48:28;;;;;;;;;;;17.40;99.90;;;;;;8422713;28;19928;-71
2023/09/24 10:52:47;;;;;;;;;;;17.50;99.90;;;;;;8411598;28;20155;-71
2023/09/24 11:07:06;;;;;;;;;;;17.80;99.90;;;;;;8413379;28;19974;-70
2023/09/24 11:11:08;;;;;;;;;;;17.80;99.90;;;;;;8412327;28;19931;-70
2023/09/24 11:15:09;;;;;;;;;;;17.80;99.90;;;;;;8422492;28;19977;-70
2023/09/24 11:19:37;;;;;;;;;;;17.90;99.90;;;;;;8420969;28;19946;-70
2023/09/24 11:23:39;;;;;;;;;;;18.00;99.90;;;;;;8421434;28;19951;-70
2023/09/24 11:27:48;;;;;;;;;;;18.00;99.90;;;;;;8426283;28;19930;-69
2023/09/24 11:31:49;;;;;;;;;;;17.90;99.90;;;;;;8422166;28;19924;-69
2023/09/24 11:35:52;;;;;;;;;;;17.90;99.90;;;;;;8416344;28;19924;-69
2023/09/24 11:39:54;;;;;;;;;;;17.90;99.90;;;;;;8414223;28;19933;-70
2023/09/24 11:43:59;;;;;;;;;;;17.90;99.90;;;;;;8423256;28;20264;-70
2023/09/24 11:48:01;;;;;;;;;;;17.90;99.90;;;;;;8425589;28;19928;-71
2023/09/24 11:52:09;;;;;;;;;;;18.10;99.90;;;;;;8425921;28;19963;-71
2023/09/24 11:56:11;;;;;;;;;;;18.30;99.90;;;;;;8427218;28;19975;-71
2023/09/24 12:00:13;;;;;;;;;;;18.40;99.90;;;;;;8405172;28;19924;-70
2023/09/24 12:04:15;;;;;;;;;;;18.50;99.90;;;;;;8413516;28;20330;-71
2023/09/24 12:08:17;;;;;;;;;;;18.50;99.90;;;;;;8426428;28;19924;-70
2023/09/24 12:12:18;;;;;;;;;;;18.50;99.90;;;;;;8399536;28;19924;-70
2023/09/24 12:16:20;;;;;;;;;;;18.60;99.90;;;;;;8414033;28;19924;-71
2023/09/24 12:20:22;;;;;;;;;;;18.60;99.90;;;;;;8411921;28;20280;-69
2023/09/24 12:24:24;;;;;;;;;;;18.70;99.90;;;;;;8406580;28;19924;-70
2023/09/24 12:28:27;;;;;;;;;;;18.60;99.90;;;;;;8401076;28;20295;-70
2023/09/24 12:32:29;;;;;;;;;;;18.70;99.90;;;;;;8421456;28;19930;-70
2023/09/24 12:36:31;;;;;;;;;;;18.70;99.90;;;;;;8408014;28;19928;-70
2023/09/24 12:40:33;;;;;;;;;;;18.80;99.90;;;;;;8426126;28;19926;-69
2023/09/24 12:44:35;;;;;;;;;;;18.70;99.90;;;;;;8420635;28;19924;-70
2023/09/24 12:48:37;;;;;;;;;;;18.70;99.90;;;;;;8416726;28;19932;-71
2023/09/24 12:52:44;;;;;;;;;;;18.80;99.90;;;;;;8417021;28;20413;-69
2023/09/24 12:56:45;;;;;;;;;;;18.90;99.90;;;;;;8405505;28;19935;-70
2023/09/24 13:00:47;;;;;;;;;;;19.00;99.90;;;;;;8403608;28;19964;-70
2023/09/24 13:04:49;;;;;;;;;;;19.00;99.90;;;;;;8425558;28;20351;-70
2023/09/24 13:08:51;;;;;;;;;;;19.00;99.90;;;;;;8424708;28;19924;-70
2023/09/24 13:12:53;;;;;;;;;;;19.10;99.90;;;;;;8422739;28;19981;-71
2023/09/24 13:16:55;;;;;;;;;;;19.10;99.90;;;;;;8422590;28;19931;-70
2023/09/24 13:20:57;;;;;;;;;;;19.10;99.90;;;;;;8423339;28;19931;-70
2023/09/24 13:24:59;;;;;;;;;;;19.20;99.90;;;;;;8419718;28;19964;-70
2023/09/24 13:29:00;;;;;;;;;;;19.30;99.90;;;;;;8413672;28;19991;-70
2023/09/24 13:33:02;;;;;;;;;;;19.30;99.90;;;;;;8411034;28;19925;-70
2023/09/24 13:37:04;;;;;;;;;;;19.40;99.90;;;;;;8420909;28;19931;-70
2023/09/24 13:41:05;;;;;;;;;;;19.50;99.90;;;;;;8419067;28;19924;-70
2023/09/24 13:45:07;;;;;;;;;;;19.60;99.90;;;;;;8419444;28;19977;-70
2023/09/24 13:49:10;;;;;;;;;;;19.60;99.90;;;;;;8423766;28;20014;-71
2023/09/24 13:53:12;;;;;;;;;;;19.70;99.90;;;;;;8422856;28;19924;-70
2023/09/24 13:57:13;;;;;;;;;;;19.80;99.90;;;;;;8407740;28;19924;-70
2023/09/24 14:01:15;;;;;;;;;;;19.90;99.90;;;;;;8413409;28;20334;-70
2023/09/24 14:05:16;;;;;;;;;;;20.00;99.90;;;;;;8412162;28;19978;-70
2023/09/24 14:13:39;;;;;;;;;;;20.20;99.90;;;;;;8411196;28;19931;-71
2023/09/24 14:17:40;;;;;;;;;;;20.30;99.90;;;;;;8419713;28;20432;-71
2023/09/24 14:21:42;;;;;;;;;;;20.40;99.90;;;;;;8423203;28;19981;-71
2023/09/24 14:25:43;;;;;;;;;;;20.50;99.90;;;;;;8419943;28;19931;-71
2023/09/24 14:29:45;;;;;;;;;;;20.60;99.90;;;;;;8421798;28;19956;-70
2023/09/24 14:33:47;;;;;;;;;;;20.70;99.90;;;;;;8405043;28;20788;-71
2023/09/24 14:37:49;;;;;;;;;;;20.80;99.90;;;;;;8396248;28;20375;-70
2023/09/24 14:41:51;;;;;;;;;;;20.80;99.90;;;;;;8414524;28;19934;-72
2023/09/24 14:45:57;;;;;;;;;;;20.70;99.90;;;;;;8422857;28;19977;-70
2023/09/24 14:49:59;;;;;;;;;;;20.60;99.90;;;;;;8426127;28;19939;-70
2023/09/24 14:54:01;;;;;;;;;;;20.60;99.90;;;;;;8429023;28;19924;-71
2023/09/24 14:58:03;;;;;;;;;;;20.50;99.90;;;;;;8412114;28;19981;-71
2023/09/24 15:02:04;;;;;;;;;;;20.40;99.90;;;;;;8412373;28;19929;-70
2023/09/24 15:06:06;;;;;;;;;;;20.30;99.90;;;;;;8419872;28;20385;-71
2023/09/24 15:10:08;;;;;;;;;;;20.30;99.90;;;;;;8407043;28;19969;-71
2023/09/24 15:14:10;;;;;;;;;;;20.20;99.90;;;;;;8426865;28;19931;-70
2023/09/24 15:18:12;;;;;;;;;;;20.20;99.90;;;;;;8423830;28;20325;-70
2023/09/24 15:22:14;;;;;;;;;;;20.10;99.90;;;;;;8422781;28;20347;-71
2023/09/24 15:26:15;;;;;;;;;;;20.20;99.90;;;;;;8398057;28;19971;-70
2023/09/24 15:30:42;;;;;;;;;;;20.20;99.90;;;;;;8419642;28;19971;-71
2023/09/24 15:34:44;;;;;;;;;;;20.20;99.90;;;;;;8420007;28;20405;-71
2023/09/24 15:38:45;;;;;;;;;;;20.10;99.90;;;;;;8409919;28;20337;-70
2023/09/24 15:42:47;;;;;;;;;;;20.20;99.90;;;;;;8408057;28;19928;-71
2023/09/24 15:46:49;;;;;;;;;;;20.10;99.90;;;;;;8424683;28;20376;-72
2023/09/24 15:50:50;;;;;;;;;;;20.20;99.90;;;;;;8403467;28;19924;-72
2023/09/24 15:54:52;;;;;;;;;;;20.20;99.90;;;;;;8424352;28;19931;-70
2023/09/24 15:58:54;;;;;;;;;;;20.20;99.90;;;;;;8401799;28;19935;-72
2023/09/24 16:02:56;;;;;;;;;;;20.20;99.90;;;;;;8421818;28;20299;-71
2023/09/24 16:06:58;;;;;;;;;;;20.20;99.90;;;;;;8424993;28;19931;-71
2023/09/24 16:10:59;;;;;;;;;;;20.20;99.90;;;;;;8408023;28;19969;-71
2023/09/24 16:15:01;;;;;;;;;;;20.20;99.90;;;;;;8410300;28;19932;-71
2023/09/24 16:19:03;;;;;;;;;;;20.20;99.90;;;;;;8389796;28;19932;-71
2023/09/24 16:23:05;;;;;;;;;;;20.20;99.90;;;;;;8422391;28;19931;-72
2023/09/24 16:27:08;;;;;;;;;;;20.20;99.90;;;;;;8423606;28;19957;-71
2023/09/24 16:31:09;;;;;;;;;;;20.20;99.90;;;;;;8406996;28;19924;-71
2023/09/24 16:35:11;;;;;;;;;;;20.10;99.90;;;;;;8406773;28;19954;-71
2023/09/24 16:39:13;;;;;;;;;;;20.10;99.90;;;;;;8399489;28;20273;-71
2023/09/24 17:03:29;;;;;;;;;;;19.70;99.90;;;;;;8414579;28;19919;-71
2023/09/24 17:07:31;;;;;;;;;;;19.60;99.90;;;;;;8420942;28;20379;-71
2023/09/24 17:11:32;;;;;;;;;;;19.50;99.90;;;;;;8413110;28;19928;-71
2023/09/24 17:15:34;;;;;;;;;;;19.50;99.90;;;;;;8417026;28;19932;-71
2023/09/24 17:19:36;;;;;;;;;;;19.40;99.90;;;;;;8416500;28;19928;-71
2023/09/24 17:23:38;;;;;;;;;;;19.40;99.90;;;;;;8423325;28;19936;-71
2023/09/24 17:27:40;;;;;;;;;;;19.30;99.90;;;;;;8421704;28;19967;-71
2023/09/24 17:31:42;;;;;;;;;;;19.20;99.90;;;;;;8413543;28;19924;-71
2023/09/24 17:35:50;;;;;;;;;;;19.10;99.90;;;;;;8416560;28;19924;-71
2023/09/24 17:39:52;;;;;;;;;;;19.00;99.90;;;;;;8415661;28;19929;-71
2023/09/24 17:43:53;;;;;;;;;;;18.90;99.90;;;;;;8387423;28;19932;-71
2023/09/24 17:47:55;;;;;;;;;;;18.80;99.90;;;;;;8399778;28;19925;-71
2023/09/24 17:51:57;;;;;;;;;;;18.70;99.90;;;;;;8409990;28;19924;-71
2023/09/24 17:56:00;;;;;;;;;;;18.60;99.90;;;;;;8410306;28;19946;-71
2023/09/24 18:00:01;;;;;;;;;;;18.60;99.90;;;;;;8388465;28;19928;-71
2023/09/24 18:14:11;;;;;;;;;;;18.20;99.90;;;;;;8410762;28;20322;-71
2023/09/24 18:18:13;;;;;;;;;;;18.10;99.90;;;;;;8403423;28;20375;-71
2023/09/24 18:22:14;;;;;;;;;;;18.10;99.90;;;;;;8381970;28;19971;-71
2023/09/24 18:26:16;;;;;;;;;;;18.00;99.90;;;;;;8406501;28;19931;-71
2023/09/24 18:30:18;;;;;;;;;;;17.80;99.90;;;;;;8393742;28;19944;-71
2023/09/24 18:34:19;;;;;;;;;;;17.70;99.90;;;;;;8401785;28;20260;-71
2023/09/24 18:38:21;;;;;;;;;;;17.60;99.90;;;;;;8406255;28;20395;-71
2023/09/24 18:57:32;;;;;;;;;;;17.40;99.90;;;;;;8407434;28;19946;-71
2023/09/24 19:01:34;;;;;;;;;;;17.40;99.90;;;;;;8410099;28;20375;-71
2023/09/24 19:05:36;;;;;;;;;;;17.40;99.90;;;;;;8402499;28;20187;-71
2023/09/24 19:09:39;;;;;;;;;;;17.40;99.90;;;;;;8410780;28;19924;-71
2023/09/24 19:13:40;;;;;;;;;;;17.40;99.90;;;;;;8412656;28;19981;-71
2023/09/24 19:17:44;;;;;;;;;;;17.30;99.90;;;;;;8416570;28;20143;-71
2023/09/24 19:21:46;;;;;;;;;;;17.30;99.90;;;;;;8415857;28;20306;-71
2023/09/24 19:25:48;;;;;;;;;;;17.20;99.90;;;;;;8404398;28;19940;-71
2023/09/24 19:29:53;;;;;;;;;;;17.10;99.90;;;;;;8393662;28;20390;-71
2023/09/24 19:33:55;;;;;;;;;;;17.10;99.90;;;;;;8418749;28;19932;-71
2023/09/24 19:37:58;;;;;;;;;;;17.00;99.90;;;;;;8402790;28;19932;-71
2023/09/24 19:42:02;;;;;;;;;;;16.90;99.90;;;;;;8417129;28;19932;-71
2023/09/24 19:46:05;;;;;;;;;;;16.80;99.90;;;;;;8419689;28;19924;-71
2023/09/24 19:50:07;;;;;;;;;;;16.80;99.90;;;;;;8422636;28;19924;-71
2023/09/24 19:54:09;;;;;;;;;;;16.80;99.90;;;;;;8401838;28;19924;-70
2023/09/24 19:58:11;;;;;;;;;;;16.80;99.90;;;;;;8426390;28;19928;-71
2023/09/24 20:02:13;;;;;;;;;;;16.70;99.90;;;;;;8415034;28;19924;-71
2023/09/24 20:06:14;;;;;;;;;;;16.60;99.90;;;;;;8406854;28;19928;-70
2023/09/24 20:10:17;;;;;;;;;;;16.60;99.90;;;;;;8420059;28;19924;-71
2023/09/24 20:14:20;;;;;;;;;;;16.60;99.90;;;;;;8413579;28;20378;-70
2023/09/24 20:18:22;;;;;;;;;;;16.60;99.90;;;;;;8405965;28;19948;-71
2023/09/24 20:22:25;;;;;;;;;;;16.50;99.90;;;;;;8433628;28;20123;-71
2023/09/24 20:26:27;;;;;;;;;;;16.50;99.90;;;;;;8418038;28;20383;-71
2023/09/24 20:30:29;;;;;;;;;;;16.40;99.90;;;;;;8420090;28;20327;-71
2023/09/24 20:34:31;;;;;;;;;;;16.30;99.90;;;;;;8419642;28;20268;-71
2023/09/24 20:38:33;;;;;;;;;;;16.30;99.90;;;;;;8412694;28;19924;-71
2023/09/24 20:42:34;;;;;;;;;;;16.20;99.90;;;;;;8410324;28;19929;-71
2023/09/24 20:46:37;;;;;;;;;;;16.20;99.90;;;;;;8408576;28;19924;-71
2023/09/24 20:50:39;;;;;;;;;;;16.10;99.90;;;;;;8421897;28;19971;-71
2023/09/24 20:54:40;;;;;;;;;;;16.10;99.90;;;;;;8400724;28;19931;-71
2023/09/24 20:58:44;;;;;;;;;;;16.10;99.90;;;;;;8420834;28;20443;-71
2023/09/24 21:02:46;;;;;;;;;;;16.10;99.90;;;;;;8418906;28;19924;-71
2023/09/24 21:06:47;;;;;;;;;;;16.10;99.90;;;;;;8409878;28;19928;-71
2023/09/24 21:10:49;;;;;;;;;;;16.20;99.90;;;;;;8415242;28;20321;-70
2023/09/24 21:24:51;;;;;;;;;;;16.20;99.90;;;;;;8396254;28;19927;-70
2023/09/24 21:28:53;;;;;;;;;;;16.20;99.90;;;;;;8413511;28;19928;-71
2023/09/24 21:32:55;;;;;;;;;;;16.20;99.90;;;;;;8418806;28;19947;-71
2023/09/24 21:36:57;;;;;;;;;;;16.20;99.90;;;;;;8416904;28;19928;-70
2023/09/24 21:40:58;;;;;;;;;;;16.20;99.90;;;;;;8422003;28;19924;-70
2023/09/24 21:45:00;;;;;;;;;;;16.20;99.90;;;;;;8412874;28;19928;-70
2023/09/24 21:49:02;;;;;;;;;;;16.20;99.90;;;;;;8417987;28;19924;-71
2023/09/24 21:53:04;;;;;;;;;;;16.20;99.90;;;;;;8398286;28;19928;-71
2023/09/24 21:57:05;;;;;;;;;;;16.20;99.90;;;;;;8410292;28;19929;-71
2023/09/24 22:01:11;;;;;;;;;;;16.20;99.90;;;;;;8413189;28;19924;-71
2023/09/24 22:05:13;;;;;;;;;;;16.10;99.90;;;;;;8417109;28;19924;-71
2023/09/24 22:09:15;;;;;;;;;;;16.10;99.90;;;;;;8411994;28;19947;-71
2023/09/24 22:13:17;;;;;;;;;;;16.10;99.90;;;;;;8414548;28;19978;-70
2023/09/24 22:17:20;;;;;;;;;;;16.10;99.90;;;;;;8391680;28;20306;-71
2023/09/24 22:21:22;;;;;;;;;;;16.10;99.90;;;;;;8420836;28;19931;-71
2023/09/24 22:25:24;;;;;;;;;;;16.00;99.90;;;;;;8418734;28;19924;-70
2023/09/24 22:29:26;;;;;;;;;;;16.00;99.90;;;;;;8411430;28;19939;-71
2023/09/24 22:33:27;;;;;;;;;;;16.00;99.90;;;;;;8416345;28;19932;-70
2023/09/24 22:37:29;;;;;;;;;;;15.90;99.90;;;;;;8411745;28;19939;-71
2023/09/24 22:41:31;;;;;;;;;;;15.80;99.90;;;;;;8413085;28;19932;-70
2023/09/24 22:45:33;;;;;;;;;;;15.80;99.90;;;;;;8397340;28;19939;-70
2023/09/24 22:49:34;;;;;;;;;;;15.70;99.90;;;;;;8394078;28;19928;-70
2023/09/24 22:58:39;;;;;;;;;;;15.60;99.90;;;;;;8404355;28;19962;-70
2023/09/24 23:13:20;;;;;;;;;;;15.50;99.90;;;;;;8415406;28;20016;-70
2023/09/24 23:32:57;;;;;;;;;;;15.50;99.90;;;;;;8407778;28;19970;-70
2023/09/24 23:36:59;;;;;;;;;;;15.40;99.90;;;;;;8412438;28;20020;-70
2023/09/24 23:41:01;;;;;;;;;;;15.40;99.90;;;;;;8415574;28;19931;-70
2023/09/24 23:45:03;;;;;;;;;;;15.40;99.90;;;;;;8409100;28;19924;-70
2023/09/24 23:54:11;;;;;;;;;;;15.40;99.90;;;;;;8419694;28;19919;-70
2023/09/24 23:58:13;;;;;;;;;;;15.40;99.90;;;;;;8403588;28;19934;-70
